North College Hill, Ohio
Current Conditions -  °F | °C
As of 3:16 AM on Tuesday 27 Jan 2015 (Local Time) from KHAO Reporting Station
Overcast Overcast  
Wind Chill: 13°   Ceiling: 7000
Heat Index: 20°   Visibility: 7mi
Dew Point: 14°   Wind: 5mph
Humidity: 78%   Direction: 70°ENE
Pressure: 29.95"   Gusts: NA
Location:  39.246°N, 84.538°W
Report Text: KHAO 270816Z AUTO 07004KT 7SM SCT026 OVC070 M07/M10 A2995 RMK AO2 SNE01 P0000 T10671100
Loading
Personal Weather Stations






























Interactive Weather Map New forecast layout! Learn more

10-Day Weather Forecast

Advertisements
Track Severe Weather on mobile